sensor_id;sensor_type;location;lat;lon;timestamp;P1;durP1;ratioP1;P2;durP2;ratioP2
43841;SDS011;29495;49.970;20.842;2022-11-02T00:00:36;12.98;;;7.85;;
43841;SDS011;29495;49.970;20.842;2022-11-02T00:03:05;13.15;;;8.25;;
43841;SDS011;29495;49.970;20.842;2022-11-02T00:05:31;17.05;;;9.23;;
43841;SDS011;29495;49.970;20.842;2022-11-02T00:07:57;14.32;;;8.18;;
43841;SDS011;29495;49.970;20.842;2022-11-02T00:10:23;13.77;;;8.80;;
43841;SDS011;29495;49.970;20.842;2022-11-02T00:12:50;13.60;;;8.60;;
43841;SDS011;29495;49.970;20.842;2022-11-02T00:15:16;15.18;;;9.45;;
43841;SDS011;29495;49.970;20.842;2022-11-02T00:17:46;12.25;;;8.98;;
43841;SDS011;29495;49.970;20.842;2022-11-02T00:20:15;13.95;;;8.98;;
43841;SDS011;29495;49.970;20.842;2022-11-02T00:22:43;15.82;;;9.30;;
43841;SDS011;29495;49.970;20.842;2022-11-02T00:25:11;16.35;;;9.20;;
43841;SDS011;29495;49.970;20.842;2022-11-02T00:27:39;13.52;;;8.48;;
43841;SDS011;29495;49.970;20.842;2022-11-02T00:30:06;14.75;;;8.95;;
43841;SDS011;29495;49.970;20.842;2022-11-02T00:32:33;13.70;;;8.57;;
43841;SDS011;29495;49.970;20.842;2022-11-02T00:34:59;13.00;;;7.95;;
43841;SDS011;29495;49.970;20.842;2022-11-02T00:37:25;15.32;;;9.35;;
43841;SDS011;29495;49.970;20.842;2022-11-02T00:39:51;13.05;;;8.43;;
43841;SDS011;29495;49.970;20.842;2022-11-02T00:42:17;14.95;;;9.75;;
43841;SDS011;29495;49.970;20.842;2022-11-02T00:44:43;15.93;;;9.45;;
43841;SDS011;29495;49.970;20.842;2022-11-02T00:47:09;13.27;;;8.52;;
43841;SDS011;29495;49.970;20.842;2022-11-02T00:49:38;16.67;;;9.55;;
43841;SDS011;29495;49.970;20.842;2022-11-02T00:52:05;15.00;;;9.15;;
43841;SDS011;29495;49.970;20.842;2022-11-02T00:54:31;14.23;;;7.95;;
43841;SDS011;29495;49.970;20.842;2022-11-02T00:56:58;15.68;;;8.80;;
43841;SDS011;29495;49.970;20.842;2022-11-02T00:59:24;14.35;;;8.43;;
43841;SDS011;29495;49.970;20.842;2022-11-02T01:01:49;12.77;;;8.43;;
43841;SDS011;29495;49.970;20.842;2022-11-02T01:04:16;13.93;;;8.40;;
43841;SDS011;29495;49.970;20.842;2022-11-02T01:06:44;15.77;;;8.93;;
43841;SDS011;29495;49.970;20.842;2022-11-02T01:09:10;12.70;;;8.23;;
43841;SDS011;29495;49.970;20.842;2022-11-02T01:11:38;13.05;;;8.68;;
43841;SDS011;29495;49.970;20.842;2022-11-02T01:14:05;12.18;;;8.50;;
43841;SDS011;29495;49.970;20.842;2022-11-02T01:16:31;14.05;;;9.65;;
43841;SDS011;29495;49.970;20.842;2022-11-02T01:18:57;17.02;;;10.38;;
43841;SDS011;29495;49.970;20.842;2022-11-02T01:21:24;17.60;;;11.63;;
43841;SDS011;29495;49.970;20.842;2022-11-02T01:23:50;21.15;;;11.75;;
43841;SDS011;29495;49.970;20.842;2022-11-02T01:26:16;15.88;;;10.15;;
43841;SDS011;29495;49.970;20.842;2022-11-02T01:28:43;14.15;;;10.10;;
43841;SDS011;29495;49.970;20.842;2022-11-02T01:31:11;20.33;;;10.07;;
43841;SDS011;29495;49.970;20.842;2022-11-02T01:33:37;17.58;;;10.38;;
43841;SDS011;29495;49.970;20.842;2022-11-02T01:36:07;13.77;;;8.52;;
43841;SDS011;29495;49.970;20.842;2022-11-02T01:38:33;13.65;;;8.57;;
43841;SDS011;29495;49.970;20.842;2022-11-02T01:40:59;12.85;;;8.48;;
43841;SDS011;29495;49.970;20.842;2022-11-02T01:45:59;12.80;;;8.60;;
43841;SDS011;29495;49.970;20.842;2022-11-02T01:48:42;13.48;;;8.90;;
43841;SDS011;29495;49.970;20.842;2022-11-02T01:51:17;11.57;;;8.13;;
43841;SDS011;29495;49.970;20.842;2022-11-02T01:53:48;13.68;;;8.82;;
43841;SDS011;29495;49.970;20.842;2022-11-02T01:56:17;11.55;;;7.45;;
43841;SDS011;29495;49.970;20.842;2022-11-02T01:58:46;12.02;;;8.07;;
43841;SDS011;29495;49.970;20.842;2022-11-02T02:01:16;11.73;;;7.40;;
43841;SDS011;29495;49.970;20.842;2022-11-02T02:03:42;11.73;;;8.13;;
43841;SDS011;29495;49.970;20.842;2022-11-02T02:06:11;11.65;;;7.97;;
43841;SDS011;29495;49.970;20.842;2022-11-02T02:08:40;12.50;;;8.73;;
43841;SDS011;29495;49.970;20.842;2022-11-02T02:11:25;14.30;;;8.40;;
43841;SDS011;29495;49.970;20.842;2022-11-02T02:13:53;13.73;;;8.43;;
43841;SDS011;29495;49.970;20.842;2022-11-02T02:16:27;15.13;;;8.75;;
43841;SDS011;29495;49.970;20.842;2022-11-02T02:19:08;14.02;;;7.88;;
43841;SDS011;29495;49.970;20.842;2022-11-02T02:21:52;12.18;;;8.18;;
43841;SDS011;29495;49.970;20.842;2022-11-02T02:35:23;18.73;;;10.93;;
43841;SDS011;29495;49.970;20.842;2022-11-02T02:38:04;16.15;;;10.75;;
43841;SDS011;29495;49.970;20.842;2022-11-02T02:40:42;18.92;;;10.90;;
43841;SDS011;29495;49.970;20.842;2022-11-02T02:43:26;19.55;;;11.13;;
43841;SDS011;29495;49.970;20.842;2022-11-02T02:46:05;19.17;;;11.25;;
43841;SDS011;29495;49.970;20.842;2022-11-02T02:48:37;15.43;;;9.38;;
43841;SDS011;29495;49.970;20.842;2022-11-02T02:51:07;17.00;;;10.05;;
43841;SDS011;29495;49.970;20.842;2022-11-02T02:53:44;18.63;;;10.98;;
43841;SDS011;29495;49.970;20.842;2022-11-02T02:56:16;20.08;;;12.32;;
43841;SDS011;29495;49.970;20.842;2022-11-02T02:58:49;20.02;;;12.77;;
43841;SDS011;29495;49.970;20.842;2022-11-02T03:01:29;23.17;;;13.27;;
43841;SDS011;29495;49.970;20.842;2022-11-02T03:03:57;21.23;;;15.13;;
43841;SDS011;29495;49.970;20.842;2022-11-02T03:08:58;23.77;;;15.15;;
43841;SDS011;29495;49.970;20.842;2022-11-02T03:12:02;23.13;;;14.05;;
43841;SDS011;29495;49.970;20.842;2022-11-02T03:14:49;23.77;;;14.35;;
43841;SDS011;29495;49.970;20.842;2022-11-02T03:17:44;23.48;;;13.20;;
43841;SDS011;29495;49.970;20.842;2022-11-02T03:21:08;20.48;;;12.98;;
43841;SDS011;29495;49.970;20.842;2022-11-02T03:23:17;23.63;;;12.90;;
43841;SDS011;29495;49.970;20.842;2022-11-02T03:26:00;19.70;;;13.10;;
43841;SDS011;29495;49.970;20.842;2022-11-02T03:33:38;21.23;;;11.98;;
43841;SDS011;29495;49.970;20.842;2022-11-02T03:36:18;19.15;;;12.52;;
43841;SDS011;29495;49.970;20.842;2022-11-02T03:38:51;19.23;;;11.85;;
43841;SDS011;29495;49.970;20.842;2022-11-02T03:41:24;17.33;;;10.70;;
43841;SDS011;29495;49.970;20.842;2022-11-02T03:43:58;19.58;;;12.65;;
43841;SDS011;29495;49.970;20.842;2022-11-02T03:46:30;17.98;;;10.82;;
43841;SDS011;29495;49.970;20.842;2022-11-02T03:49:02;20.63;;;11.73;;
43841;SDS011;29495;49.970;20.842;2022-11-02T03:51:33;19.10;;;12.40;;
43841;SDS011;29495;49.970;20.842;2022-11-02T03:54:04;15.93;;;10.57;;
43841;SDS011;29495;49.970;20.842;2022-11-02T03:56:34;17.83;;;10.98;;
43841;SDS011;29495;49.970;20.842;2022-11-02T03:59:04;20.67;;;10.90;;
43841;SDS011;29495;49.970;20.842;2022-11-02T04:01:30;16.42;;;10.82;;
43841;SDS011;29495;49.970;20.842;2022-11-02T04:04:12;18.00;;;10.40;;
43841;SDS011;29495;49.970;20.842;2022-11-02T04:06:40;15.43;;;9.00;;
43841;SDS011;29495;49.970;20.842;2022-11-02T04:09:08;18.42;;;11.00;;
43841;SDS011;29495;49.970;20.842;2022-11-02T04:11:35;20.02;;;10.82;;
43841;SDS011;29495;49.970;20.842;2022-11-02T04:14:20;20.15;;;12.48;;
43841;SDS011;29495;49.970;20.842;2022-11-02T04:17:13;15.80;;;10.85;;
43841;SDS011;29495;49.970;20.842;2022-11-02T04:20:00;17.65;;;10.80;;
43841;SDS011;29495;49.970;20.842;2022-11-02T04:22:26;21.08;;;12.48;;
43841;SDS011;29495;49.970;20.842;2022-11-02T04:25:16;18.27;;;11.45;;
43841;SDS011;29495;49.970;20.842;2022-11-02T04:27:50;18.00;;;11.02;;
43841;SDS011;29495;49.970;20.842;2022-11-02T04:30:21;15.70;;;10.20;;
43841;SDS011;29495;49.970;20.842;2022-11-02T04:32:48;15.38;;;8.88;;
43841;SDS011;29495;49.970;20.842;2022-11-02T04:35:40;19.10;;;11.32;;
43841;SDS011;29495;49.970;20.842;2022-11-02T04:38:07;19.38;;;11.27;;
43841;SDS011;29495;49.970;20.842;2022-11-02T04:40:54;19.63;;;10.38;;
43841;SDS011;29495;49.970;20.842;2022-11-02T04:43:41;19.60;;;12.30;;
43841;SDS011;29495;49.970;20.842;2022-11-02T04:46:07;20.77;;;11.85;;
43841;SDS011;29495;49.970;20.842;2022-11-02T04:48:33;18.92;;;11.05;;
43841;SDS011;29495;49.970;20.842;2022-11-02T04:50:59;17.38;;;11.50;;
43841;SDS011;29495;49.970;20.842;2022-11-02T04:53:26;18.70;;;11.32;;
43841;SDS011;29495;49.970;20.842;2022-11-02T04:55:51;23.08;;;11.50;;
43841;SDS011;29495;49.970;20.842;2022-11-02T04:58:17;20.60;;;11.05;;
43841;SDS011;29495;49.970;20.842;2022-11-02T05:00:44;19.45;;;11.18;;
43841;SDS011;29495;49.970;20.842;2022-11-02T05:03:11;22.15;;;11.68;;
43841;SDS011;29495;49.970;20.842;2022-11-02T05:05:37;14.98;;;9.77;;
43841;SDS011;29495;49.970;20.842;2022-11-02T05:08:03;19.08;;;11.30;;
43841;SDS011;29495;49.970;20.842;2022-11-02T05:10:29;16.30;;;9.98;;
43841;SDS011;29495;49.970;20.842;2022-11-02T05:12:56;15.43;;;9.23;;
43841;SDS011;29495;49.970;20.842;2022-11-02T05:15:25;16.10;;;10.43;;
43841;SDS011;29495;49.970;20.842;2022-11-02T05:17:51;17.38;;;11.23;;
43841;SDS011;29495;49.970;20.842;2022-11-02T05:20:17;14.68;;;9.52;;
43841;SDS011;29495;49.970;20.842;2022-11-02T05:22:44;18.38;;;11.73;;
43841;SDS011;29495;49.970;20.842;2022-11-02T05:25:11;16.95;;;10.65;;
43841;SDS011;29495;49.970;20.842;2022-11-02T05:27:38;14.65;;;9.95;;
43841;SDS011;29495;49.970;20.842;2022-11-02T05:30:04;18.75;;;10.20;;
43841;SDS011;29495;49.970;20.842;2022-11-02T05:32:32;16.87;;;10.20;;
43841;SDS011;29495;49.970;20.842;2022-11-02T05:34:59;18.02;;;9.95;;
43841;SDS011;29495;49.970;20.842;2022-11-02T05:37:26;14.93;;;9.95;;
43841;SDS011;29495;49.970;20.842;2022-11-02T05:39:52;17.90;;;10.90;;
43841;SDS011;29495;49.970;20.842;2022-11-02T05:42:19;16.17;;;11.20;;
43841;SDS011;29495;49.970;20.842;2022-11-02T05:44:44;14.85;;;10.20;;
43841;SDS011;29495;49.970;20.842;2022-11-02T05:47:10;16.52;;;10.40;;
43841;SDS011;29495;49.970;20.842;2022-11-02T05:49:36;16.75;;;9.80;;
43841;SDS011;29495;49.970;20.842;2022-11-02T05:52:02;16.70;;;10.02;;
43841;SDS011;29495;49.970;20.842;2022-11-02T05:54:28;17.08;;;11.43;;
43841;SDS011;29495;49.970;20.842;2022-11-02T05:56:55;16.33;;;9.38;;
43841;SDS011;29495;49.970;20.842;2022-11-02T05:59:21;13.75;;;9.27;;
43841;SDS011;29495;49.970;20.842;2022-11-02T06:01:47;15.55;;;9.38;;
43841;SDS011;29495;49.970;20.842;2022-11-02T06:04:14;14.23;;;9.15;;
43841;SDS011;29495;49.970;20.842;2022-11-02T06:06:39;18.25;;;10.48;;
43841;SDS011;29495;49.970;20.842;2022-11-02T06:09:05;19.70;;;9.90;;
43841;SDS011;29495;49.970;20.842;2022-11-02T06:11:31;17.25;;;9.50;;
43841;SDS011;29495;49.970;20.842;2022-11-02T06:13:57;21.15;;;11.43;;
43841;SDS011;29495;49.970;20.842;2022-11-02T06:16:23;17.55;;;10.32;;
43841;SDS011;29495;49.970;20.842;2022-11-02T06:18:50;18.00;;;11.55;;
43841;SDS011;29495;49.970;20.842;2022-11-02T06:21:16;15.30;;;9.05;;
43841;SDS011;29495;49.970;20.842;2022-11-02T06:23:42;15.75;;;9.65;;
43841;SDS011;29495;49.970;20.842;2022-11-02T06:26:10;18.00;;;10.10;;
43841;SDS011;29495;49.970;20.842;2022-11-02T06:28:37;17.50;;;11.50;;
43841;SDS011;29495;49.970;20.842;2022-11-02T06:31:03;17.48;;;11.38;;
43841;SDS011;29495;49.970;20.842;2022-11-02T06:33:29;20.35;;;12.13;;
43841;SDS011;29495;49.970;20.842;2022-11-02T06:35:55;21.27;;;12.75;;
43841;SDS011;29495;49.970;20.842;2022-11-02T06:38:21;19.40;;;11.85;;
43841;SDS011;29495;49.970;20.842;2022-11-02T06:40:57;16.70;;;10.63;;
43841;SDS011;29495;49.970;20.842;2022-11-02T06:43:26;16.85;;;10.27;;
43841;SDS011;29495;49.970;20.842;2022-11-02T06:45:55;22.65;;;11.88;;
43841;SDS011;29495;49.970;20.842;2022-11-02T06:48:22;14.65;;;10.52;;
43841;SDS011;29495;49.970;20.842;2022-11-02T06:50:49;16.83;;;10.52;;
43841;SDS011;29495;49.970;20.842;2022-11-02T06:53:15;21.13;;;10.65;;
43841;SDS011;29495;49.970;20.842;2022-11-02T06:55:42;15.60;;;9.60;;
43841;SDS011;29495;49.970;20.842;2022-11-02T06:58:08;16.52;;;9.32;;
43841;SDS011;29495;49.970;20.842;2022-11-02T07:00:34;16.13;;;9.68;;
43841;SDS011;29495;49.970;20.842;2022-11-02T07:03:01;14.68;;;7.57;;
43841;SDS011;29495;49.970;20.842;2022-11-02T07:05:29;15.57;;;9.15;;
43841;SDS011;29495;49.970;20.842;2022-11-02T07:07:56;16.77;;;9.60;;
43841;SDS011;29495;49.970;20.842;2022-11-02T07:10:22;12.93;;;8.55;;
43841;SDS011;29495;49.970;20.842;2022-11-02T07:12:52;12.63;;;8.43;;
43841;SDS011;29495;49.970;20.842;2022-11-02T07:15:22;13.52;;;8.40;;
43841;SDS011;29495;49.970;20.842;2022-11-02T07:17:49;18.10;;;10.02;;
43841;SDS011;29495;49.970;20.842;2022-11-02T07:20:16;16.40;;;9.57;;
43841;SDS011;29495;49.970;20.842;2022-11-02T07:22:50;14.20;;;8.90;;
43841;SDS011;29495;49.970;20.842;2022-11-02T07:25:17;15.30;;;9.85;;
43841;SDS011;29495;49.970;20.842;2022-11-02T07:27:43;14.02;;;8.02;;
43841;SDS011;29495;49.970;20.842;2022-11-02T07:30:09;12.65;;;8.48;;
43841;SDS011;29495;49.970;20.842;2022-11-02T07:32:41;12.93;;;8.48;;
43841;SDS011;29495;49.970;20.842;2022-11-02T07:35:09;13.52;;;9.02;;
43841;SDS011;29495;49.970;20.842;2022-11-02T07:37:36;13.63;;;8.40;;
43841;SDS011;29495;49.970;20.842;2022-11-02T07:40:03;13.43;;;8.05;;
43841;SDS011;29495;49.970;20.842;2022-11-02T07:42:30;13.65;;;9.43;;
43841;SDS011;29495;49.970;20.842;2022-11-02T07:44:57;14.55;;;8.00;;
43841;SDS011;29495;49.970;20.842;2022-11-02T07:47:23;14.40;;;8.50;;
43841;SDS011;29495;49.970;20.842;2022-11-02T07:49:49;13.10;;;7.60;;
43841;SDS011;29495;49.970;20.842;2022-11-02T07:52:15;15.38;;;9.10;;
43841;SDS011;29495;49.970;20.842;2022-11-02T07:54:41;15.95;;;9.10;;
43841;SDS011;29495;49.970;20.842;2022-11-02T07:57:06;15.25;;;9.00;;
43841;SDS011;29495;49.970;20.842;2022-11-02T07:59:32;15.77;;;9.25;;
43841;SDS011;29495;49.970;20.842;2022-11-02T08:02:00;16.17;;;9.95;;
43841;SDS011;29495;49.970;20.842;2022-11-02T08:04:27;14.57;;;9.43;;
43841;SDS011;29495;49.970;20.842;2022-11-02T08:06:53;17.35;;;10.32;;
43841;SDS011;29495;49.970;20.842;2022-11-02T08:09:19;15.63;;;9.23;;
43841;SDS011;29495;49.970;20.842;2022-11-02T08:11:45;16.70;;;10.40;;
43841;SDS011;29495;49.970;20.842;2022-11-02T08:14:10;17.98;;;10.02;;
43841;SDS011;29495;49.970;20.842;2022-11-02T08:16:36;15.25;;;9.38;;
43841;SDS011;29495;49.970;20.842;2022-11-02T08:19:02;13.98;;;8.52;;
43841;SDS011;29495;49.970;20.842;2022-11-02T08:21:28;12.35;;;7.88;;
43841;SDS011;29495;49.970;20.842;2022-11-02T08:23:54;14.85;;;8.35;;
43841;SDS011;29495;49.970;20.842;2022-11-02T08:26:20;13.07;;;8.32;;
43841;SDS011;29495;49.970;20.842;2022-11-02T08:28:46;14.13;;;8.15;;
43841;SDS011;29495;49.970;20.842;2022-11-02T08:31:13;11.98;;;7.13;;
43841;SDS011;29495;49.970;20.842;2022-11-02T08:33:40;11.52;;;7.20;;
43841;SDS011;29495;49.970;20.842;2022-11-02T08:36:09;13.40;;;8.93;;
43841;SDS011;29495;49.970;20.842;2022-11-02T08:38:35;15.07;;;9.13;;
43841;SDS011;29495;49.970;20.842;2022-11-02T08:41:02;16.85;;;9.50;;
43841;SDS011;29495;49.970;20.842;2022-11-02T08:43:28;13.95;;;8.32;;
43841;SDS011;29495;49.970;20.842;2022-11-02T08:45:57;14.35;;;8.57;;
43841;SDS011;29495;49.970;20.842;2022-11-02T08:48:25;14.50;;;8.50;;
43841;SDS011;29495;49.970;20.842;2022-11-02T08:50:51;17.17;;;9.80;;
43841;SDS011;29495;49.970;20.842;2022-11-02T08:53:17;16.27;;;10.02;;
43841;SDS011;29495;49.970;20.842;2022-11-02T08:55:43;14.88;;;8.82;;
43841;SDS011;29495;49.970;20.842;2022-11-02T08:58:09;14.85;;;9.45;;
43841;SDS011;29495;49.970;20.842;2022-11-02T09:00:35;16.42;;;9.18;;
43841;SDS011;29495;49.970;20.842;2022-11-02T09:03:05;14.55;;;7.10;;
43841;SDS011;29495;49.970;20.842;2022-11-02T09:05:40;13.98;;;7.85;;
43841;SDS011;29495;49.970;20.842;2022-11-02T09:08:14;13.93;;;7.88;;
43841;SDS011;29495;49.970;20.842;2022-11-02T09:10:42;12.68;;;7.43;;
43841;SDS011;29495;49.970;20.842;2022-11-02T09:13:10;13.63;;;7.70;;
43841;SDS011;29495;49.970;20.842;2022-11-02T09:15:37;12.15;;;8.50;;
43841;SDS011;29495;49.970;20.842;2022-11-02T09:18:03;12.13;;;7.18;;
43841;SDS011;29495;49.970;20.842;2022-11-02T09:20:31;14.50;;;8.07;;
43841;SDS011;29495;49.970;20.842;2022-11-02T09:22:57;11.35;;;8.35;;
43841;SDS011;29495;49.970;20.842;2022-11-02T09:25:23;11.48;;;6.95;;
43841;SDS011;29495;49.970;20.842;2022-11-02T09:27:53;12.13;;;8.48;;
43841;SDS011;29495;49.970;20.842;2022-11-02T09:30:20;16.23;;;8.95;;
43841;SDS011;29495;49.970;20.842;2022-11-02T09:32:56;13.93;;;9.07;;
43841;SDS011;29495;49.970;20.842;2022-11-02T09:35:26;15.48;;;8.95;;
43841;SDS011;29495;49.970;20.842;2022-11-02T09:37:54;11.18;;;7.13;;
43841;SDS011;29495;49.970;20.842;2022-11-02T09:40:21;12.63;;;7.90;;
43841;SDS011;29495;49.970;20.842;2022-11-02T09:45:22;11.13;;;7.60;;
43841;SDS011;29495;49.970;20.842;2022-11-02T09:50:21;11.43;;;7.95;;
43841;SDS011;29495;49.970;20.842;2022-11-02T09:52:51;15.23;;;7.50;;
43841;SDS011;29495;49.970;20.842;2022-11-02T09:55:27;16.92;;;7.70;;
43841;SDS011;29495;49.970;20.842;2022-11-02T09:58:15;12.35;;;8.00;;
43841;SDS011;29495;49.970;20.842;2022-11-02T10:00:44;12.98;;;8.20;;
43841;SDS011;29495;49.970;20.842;2022-11-02T10:14:19;9.63;;;6.78;;
43841;SDS011;29495;49.970;20.842;2022-11-02T10:19:54;9.10;;;6.35;;
43841;SDS011;29495;49.970;20.842;2022-11-02T10:22:23;10.63;;;7.20;;
43841;SDS011;29495;49.970;20.842;2022-11-02T10:24:53;13.68;;;7.63;;
43841;SDS011;29495;49.970;20.842;2022-11-02T10:27:25;14.23;;;6.35;;
43841;SDS011;29495;49.970;20.842;2022-11-02T10:29:58;10.82;;;5.47;;
43841;SDS011;29495;49.970;20.842;2022-11-02T10:32:29;9.15;;;5.13;;
43841;SDS011;29495;49.970;20.842;2022-11-02T10:34:56;10.43;;;6.45;;
43841;SDS011;29495;49.970;20.842;2022-11-02T10:48:28;8.95;;;6.47;;
43841;SDS011;29495;49.970;20.842;2022-11-02T10:53:35;10.82;;;5.40;;
43841;SDS011;29495;49.970;20.842;2022-11-02T10:56:23;7.38;;;5.85;;
43841;SDS011;29495;49.970;20.842;2022-11-02T11:01:34;9.60;;;4.80;;
43841;SDS011;29495;49.970;20.842;2022-11-02T11:04:19;10.77;;;5.18;;
43841;SDS011;29495;49.970;20.842;2022-11-02T11:06:49;7.97;;;4.90;;
43841;SDS011;29495;49.970;20.842;2022-11-02T11:14:21;11.25;;;5.72;;
43841;SDS011;29495;49.970;20.842;2022-11-02T11:16:50;10.30;;;5.38;;
43841;SDS011;29495;49.970;20.842;2022-11-02T11:19:22;8.90;;;5.28;;
43841;SDS011;29495;49.970;20.842;2022-11-02T11:21:55;7.18;;;4.25;;
43841;SDS011;29495;49.970;20.842;2022-11-02T11:24:25;5.95;;;4.38;;
43841;SDS011;29495;49.970;20.842;2022-11-02T11:27:11;9.60;;;4.18;;
43841;SDS011;29495;49.970;20.842;2022-11-02T11:29:51;9.73;;;5.28;;
43841;SDS011;29495;49.970;20.842;2022-11-02T11:32:28;9.57;;;4.75;;
43841;SDS011;29495;49.970;20.842;2022-11-02T11:34:55;9.95;;;5.78;;
43841;SDS011;29495;49.970;20.842;2022-11-02T11:37:24;10.77;;;6.10;;
43841;SDS011;29495;49.970;20.842;2022-11-02T11:40:01;10.48;;;5.60;;
43841;SDS011;29495;49.970;20.842;2022-11-02T11:42:30;7.00;;;4.95;;
43841;SDS011;29495;49.970;20.842;2022-11-02T11:45:13;7.63;;;5.07;;
43841;SDS011;29495;49.970;20.842;2022-11-02T11:47:44;7.55;;;4.82;;
43841;SDS011;29495;49.970;20.842;2022-11-02T11:50:15;6.65;;;4.97;;
43841;SDS011;29495;49.970;20.842;2022-11-02T11:52:42;9.23;;;4.40;;
43841;SDS011;29495;49.970;20.842;2022-11-02T11:57:44;8.18;;;4.07;;
43841;SDS011;29495;49.970;20.842;2022-11-02T12:00:31;6.35;;;4.00;;
43841;SDS011;29495;49.970;20.842;2022-11-02T12:03:01;6.28;;;3.47;;
43841;SDS011;29495;49.970;20.842;2022-11-02T12:05:34;5.65;;;3.78;;
43841;SDS011;29495;49.970;20.842;2022-11-02T12:08:18;7.30;;;3.65;;
43841;SDS011;29495;49.970;20.842;2022-11-02T12:11:03;10.57;;;4.53;;
43841;SDS011;29495;49.970;20.842;2022-11-02T12:35:58;6.07;;;2.90;;
43841;SDS011;29495;49.970;20.842;2022-11-02T12:38:48;5.35;;;3.35;;
43841;SDS011;29495;49.970;20.842;2022-11-02T12:41:29;4.22;;;2.60;;
43841;SDS011;29495;49.970;20.842;2022-11-02T12:44:36;8.88;;;3.40;;
43841;SDS011;29495;49.970;20.842;2022-11-02T12:52:37;4.20;;;2.28;;
43841;SDS011;29495;49.970;20.842;2022-11-02T12:55:43;6.80;;;2.78;;
43841;SDS011;29495;49.970;20.842;2022-11-02T12:58:14;5.35;;;2.63;;
43841;SDS011;29495;49.970;20.842;2022-11-02T13:01:10;6.30;;;2.83;;
43841;SDS011;29495;49.970;20.842;2022-11-02T13:06:33;3.95;;;2.28;;
43841;SDS011;29495;49.970;20.842;2022-11-02T13:09:06;3.72;;;2.55;;
43841;SDS011;29495;49.970;20.842;2022-11-02T13:11:38;4.88;;;2.30;;
43841;SDS011;29495;49.970;20.842;2022-11-02T13:14:15;3.70;;;2.72;;
43841;SDS011;29495;49.970;20.842;2022-11-02T13:16:47;4.88;;;2.92;;
43841;SDS011;29495;49.970;20.842;2022-11-02T13:19:28;3.60;;;2.42;;
43841;SDS011;29495;49.970;20.842;2022-11-02T13:22:00;4.68;;;2.70;;
43841;SDS011;29495;49.970;20.842;2022-11-02T13:24:30;4.20;;;2.88;;
43841;SDS011;29495;49.970;20.842;2022-11-02T13:27:02;6.30;;;2.92;;
43841;SDS011;29495;49.970;20.842;2022-11-02T13:34:47;3.53;;;2.73;;
43841;SDS011;29495;49.970;20.842;2022-11-02T13:37:24;5.30;;;2.92;;
43841;SDS011;29495;49.970;20.842;2022-11-02T13:40:00;5.88;;;2.92;;
43841;SDS011;29495;49.970;20.842;2022-11-02T13:51:03;4.78;;;3.08;;
43841;SDS011;29495;49.970;20.842;2022-11-02T13:53:36;6.57;;;3.53;;
43841;SDS011;29495;49.970;20.842;2022-11-02T13:56:10;4.70;;;2.90;;
43841;SDS011;29495;49.970;20.842;2022-11-02T13:58:46;5.57;;;3.20;;
43841;SDS011;29495;49.970;20.842;2022-11-02T14:01:20;6.85;;;3.83;;
43841;SDS011;29495;49.970;20.842;2022-11-02T14:03:49;5.15;;;3.05;;
43841;SDS011;29495;49.970;20.842;2022-11-02T14:06:25;6.20;;;4.30;;
43841;SDS011;29495;49.970;20.842;2022-11-02T14:08:53;7.22;;;3.92;;
43841;SDS011;29495;49.970;20.842;2022-11-02T14:12:09;7.88;;;3.30;;
43841;SDS011;29495;49.970;20.842;2022-11-02T14:16:54;5.40;;;3.22;;
43841;SDS011;29495;49.970;20.842;2022-11-02T14:19:23;5.68;;;3.92;;
43841;SDS011;29495;49.970;20.842;2022-11-02T14:41:03;4.53;;;2.90;;
43841;SDS011;29495;49.970;20.842;2022-11-02T14:49:31;4.65;;;2.78;;
43841;SDS011;29495;49.970;20.842;2022-11-02T14:52:16;3.65;;;2.20;;
43841;SDS011;29495;49.970;20.842;2022-11-02T14:54:52;5.20;;;2.72;;
43841;SDS011;29495;49.970;20.842;2022-11-02T14:57:38;4.20;;;2.95;;
43841;SDS011;29495;49.970;20.842;2022-11-02T15:00:19;7.00;;;4.80;;
43841;SDS011;29495;49.970;20.842;2022-11-02T15:02:49;7.75;;;5.63;;
43841;SDS011;29495;49.970;20.842;2022-11-02T15:05:28;8.70;;;5.53;;
43841;SDS011;29495;49.970;20.842;2022-11-02T15:08:02;5.93;;;4.68;;
43841;SDS011;29495;49.970;20.842;2022-11-02T15:10:34;5.30;;;4.07;;
43841;SDS011;29495;49.970;20.842;2022-11-02T15:15:43;4.25;;;2.72;;
43841;SDS011;29495;49.970;20.842;2022-11-02T15:29:02;3.30;;;2.17;;
43841;SDS011;29495;49.970;20.842;2022-11-02T15:31:30;2.42;;;2.10;;
43841;SDS011;29495;49.970;20.842;2022-11-02T15:34:03;4.75;;;2.10;;
43841;SDS011;29495;49.970;20.842;2022-11-02T15:36:41;3.42;;;1.75;;
43841;SDS011;29495;49.970;20.842;2022-11-02T15:39:08;4.15;;;2.25;;
43841;SDS011;29495;49.970;20.842;2022-11-02T15:41:50;4.50;;;2.67;;
43841;SDS011;29495;49.970;20.842;2022-11-02T15:50:29;3.40;;;2.25;;
43841;SDS011;29495;49.970;20.842;2022-11-02T15:53:25;4.07;;;2.38;;
43841;SDS011;29495;49.970;20.842;2022-11-02T16:03:53;22.10;;;7.72;;
43841;SDS011;29495;49.970;20.842;2022-11-02T16:06:28;23.13;;;8.57;;
43841;SDS011;29495;49.970;20.842;2022-11-02T16:14:41;15.13;;;7.32;;
43841;SDS011;29495;49.970;20.842;2022-11-02T16:17:22;13.40;;;6.22;;
43841;SDS011;29495;49.970;20.842;2022-11-02T16:19:50;13.90;;;6.75;;
43841;SDS011;29495;49.970;20.842;2022-11-02T16:22:24;11.30;;;5.47;;
43841;SDS011;29495;49.970;20.842;2022-11-02T16:24:51;9.77;;;5.38;;
43841;SDS011;29495;49.970;20.842;2022-11-02T16:27:19;13.75;;;5.75;;
43841;SDS011;29495;49.970;20.842;2022-11-02T16:29:46;11.18;;;5.65;;
43841;SDS011;29495;49.970;20.842;2022-11-02T16:32:14;12.15;;;7.03;;
43841;SDS011;29495;49.970;20.842;2022-11-02T16:34:40;16.70;;;6.07;;
43841;SDS011;29495;49.970;20.842;2022-11-02T16:37:08;12.75;;;6.20;;
43841;SDS011;29495;49.970;20.842;2022-11-02T16:39:38;15.77;;;6.47;;
43841;SDS011;29495;49.970;20.842;2022-11-02T16:42:12;13.85;;;7.15;;
43841;SDS011;29495;49.970;20.842;2022-11-02T16:44:53;14.82;;;6.07;;
43841;SDS011;29495;49.970;20.842;2022-11-02T16:47:31;12.70;;;7.07;;
43841;SDS011;29495;49.970;20.842;2022-11-02T16:50:02;16.33;;;7.22;;
43841;SDS011;29495;49.970;20.842;2022-11-02T16:52:45;13.20;;;7.10;;
43841;SDS011;29495;49.970;20.842;2022-11-02T16:58:19;18.15;;;9.52;;
43841;SDS011;29495;49.970;20.842;2022-11-02T17:00:51;23.65;;;11.93;;
43841;SDS011;29495;49.970;20.842;2022-11-02T17:03:26;33.03;;;16.90;;
43841;SDS011;29495;49.970;20.842;2022-11-02T17:05:55;36.70;;;18.75;;
43841;SDS011;29495;49.970;20.842;2022-11-02T17:08:28;39.17;;;20.17;;
43841;SDS011;29495;49.970;20.842;2022-11-02T17:10:57;44.03;;;21.02;;
43841;SDS011;29495;49.970;20.842;2022-11-02T17:13:25;40.45;;;21.00;;
43841;SDS011;29495;49.970;20.842;2022-11-02T17:15:52;48.22;;;22.92;;
43841;SDS011;29495;49.970;20.842;2022-11-02T17:20:47;50.08;;;26.50;;
43841;SDS011;29495;49.970;20.842;2022-11-02T17:23:34;53.85;;;28.73;;
43841;SDS011;29495;49.970;20.842;2022-11-02T17:31:23;63.92;;;33.47;;
43841;SDS011;29495;49.970;20.842;2022-11-02T17:33:55;76.88;;;35.53;;
43841;SDS011;29495;49.970;20.842;2022-11-02T17:36:43;67.47;;;35.15;;
43841;SDS011;29495;49.970;20.842;2022-11-02T17:39:14;73.38;;;38.05;;
43841;SDS011;29495;49.970;20.842;2022-11-02T17:41:42;69.70;;;35.65;;
43841;SDS011;29495;49.970;20.842;2022-11-02T17:44:27;73.20;;;36.13;;